sensor_id;sensor_type;location;lat;lon;timestamp;P1;durP1;ratioP1;P2;durP2;ratioP2
34557;SDS011;24708;48.888;8.736;2022-08-03T05:31:38;5.80;;;2.42;;
34557;SDS011;24708;48.888;8.736;2022-08-03T05:34:06;4.25;;;1.85;;
34557;SDS011;24708;48.888;8.736;2022-08-03T05:36:34;9.82;;;2.60;;
34557;SDS011;24708;48.888;8.736;2022-08-03T05:39:02;4.95;;;2.53;;
34557;SDS011;24708;48.888;8.736;2022-08-03T05:41:29;3.75;;;1.75;;
34557;SDS011;24708;48.888;8.736;2022-08-03T05:44:03;4.07;;;1.90;;
34557;SDS011;24708;48.888;8.736;2022-08-03T05:46:30;4.85;;;2.10;;
34557;SDS011;24708;48.888;8.736;2022-08-03T05:48:58;3.70;;;2.10;;
34557;SDS011;24708;48.888;8.736;2022-08-03T05:51:25;2.30;;;1.65;;
34557;SDS011;24708;48.888;8.736;2022-08-03T05:53:54;2.40;;;1.58;;
34557;SDS011;24708;48.888;8.736;2022-08-03T05:56:22;6.05;;;1.98;;
34557;SDS011;24708;48.888;8.736;2022-08-03T05:58:50;5.47;;;2.80;;
34557;SDS011;24708;48.888;8.736;2022-08-03T06:01:19;3.05;;;1.42;;
34557;SDS011;24708;48.888;8.736;2022-08-03T06:03:48;2.70;;;1.80;;
34557;SDS011;24708;48.888;8.736;2022-08-03T06:06:17;4.65;;;1.38;;
34557;SDS011;24708;48.888;8.736;2022-08-03T06:08:45;7.10;;;1.70;;
34557;SDS011;24708;48.888;8.736;2022-08-03T06:11:14;2.25;;;1.52;;
34557;SDS011;24708;48.888;8.736;2022-08-03T06:13:42;4.68;;;1.77;;
34557;SDS011;24708;48.888;8.736;2022-08-03T06:16:09;3.72;;;1.60;;
34557;SDS011;24708;48.888;8.736;2022-08-03T06:18:37;5.28;;;1.83;;
34557;SDS011;24708;48.888;8.736;2022-08-03T06:21:06;3.15;;;1.92;;
34557;SDS011;24708;48.888;8.736;2022-08-03T06:23:41;4.13;;;2.08;;
34557;SDS011;24708;48.888;8.736;2022-08-03T06:26:19;2.08;;;1.50;;
34557;SDS011;24708;48.888;8.736;2022-08-03T06:28:46;2.72;;;1.35;;
34557;SDS011;24708;48.888;8.736;2022-08-03T06:31:19;5.32;;;2.17;;
34557;SDS011;24708;48.888;8.736;2022-08-03T06:33:50;14.85;;;1.70;;
34557;SDS011;24708;48.888;8.736;2022-08-03T06:36:37;27.77;;;2.45;;
34557;SDS011;24708;48.888;8.736;2022-08-03T06:39:05;5.78;;;1.83;;
34557;SDS011;24708;48.888;8.736;2022-08-03T06:41:34;4.75;;;1.67;;
34557;SDS011;24708;48.888;8.736;2022-08-03T06:44:03;3.50;;;1.50;;
34557;SDS011;24708;48.888;8.736;2022-08-03T06:46:31;3.15;;;1.05;;
34557;SDS011;24708;48.888;8.736;2022-08-03T06:48:58;4.22;;;1.30;;
34557;SDS011;24708;48.888;8.736;2022-08-03T06:51:25;1.65;;;1.20;;
34557;SDS011;24708;48.888;8.736;2022-08-03T06:54:12;4.57;;;1.42;;
34557;SDS011;24708;48.888;8.736;2022-08-03T06:56:40;5.47;;;1.30;;
34557;SDS011;24708;48.888;8.736;2022-08-03T06:59:07;7.50;;;1.52;;
34557;SDS011;24708;48.888;8.736;2022-08-03T07:01:54;2.42;;;1.40;;
34557;SDS011;24708;48.888;8.736;2022-08-03T07:04:21;5.03;;;1.85;;
34557;SDS011;24708;48.888;8.736;2022-08-03T07:06:49;2.00;;;1.35;;
34557;SDS011;24708;48.888;8.736;2022-08-03T07:09:16;1.33;;;1.00;;
34557;SDS011;24708;48.888;8.736;2022-08-03T07:11:43;2.55;;;0.80;;
34557;SDS011;24708;48.888;8.736;2022-08-03T07:14:11;1.70;;;0.75;;
34557;SDS011;24708;48.888;8.736;2022-08-03T07:16:38;1.90;;;0.90;;
34557;SDS011;24708;48.888;8.736;2022-08-03T07:19:05;1.35;;;0.90;;
34557;SDS011;24708;48.888;8.736;2022-08-03T07:21:33;0.90;;;0.70;;
34557;SDS011;24708;48.888;8.736;2022-08-03T07:24:00;1.00;;;0.70;;
34557;SDS011;24708;48.888;8.736;2022-08-03T07:26:27;2.63;;;1.27;;
34557;SDS011;24708;48.888;8.736;2022-08-03T07:28:55;2.85;;;1.05;;
34557;SDS011;24708;48.888;8.736;2022-08-03T07:31:22;2.10;;;0.60;;
34557;SDS011;24708;48.888;8.736;2022-08-03T07:33:49;1.45;;;0.75;;
34557;SDS011;24708;48.888;8.736;2022-08-03T07:36:16;1.00;;;0.57;;
34557;SDS011;24708;48.888;8.736;2022-08-03T07:38:43;0.82;;;0.63;;
34557;SDS011;24708;48.888;8.736;2022-08-03T07:41:11;1.20;;;0.73;;
34557;SDS011;24708;48.888;8.736;2022-08-03T07:43:38;1.17;;;0.50;;
34557;SDS011;24708;48.888;8.736;2022-08-03T07:46:05;1.55;;;0.75;;
34557;SDS011;24708;48.888;8.736;2022-08-03T07:48:32;1.50;;;0.75;;
34557;SDS011;24708;48.888;8.736;2022-08-03T07:51:02;1.60;;;0.80;;
34557;SDS011;24708;48.888;8.736;2022-08-03T07:53:31;1.75;;;0.80;;
34557;SDS011;24708;48.888;8.736;2022-08-03T07:56:03;1.27;;;0.80;;
34557;SDS011;24708;48.888;8.736;2022-08-03T07:58:36;1.15;;;0.70;;
34557;SDS011;24708;48.888;8.736;2022-08-03T08:01:04;1.10;;;0.70;;
34557;SDS011;24708;48.888;8.736;2022-08-03T08:03:31;1.27;;;0.88;;
34557;SDS011;24708;48.888;8.736;2022-08-03T08:06:19;0.57;;;0.40;;
34557;SDS011;24708;48.888;8.736;2022-08-03T08:08:47;2.35;;;1.00;;
34557;SDS011;24708;48.888;8.736;2022-08-03T08:11:14;1.00;;;0.80;;
34557;SDS011;24708;48.888;8.736;2022-08-03T08:13:42;0.68;;;0.68;;
34557;SDS011;24708;48.888;8.736;2022-08-03T08:16:09;2.38;;;0.60;;
34557;SDS011;24708;48.888;8.736;2022-08-03T08:18:37;0.60;;;0.50;;
34557;SDS011;24708;48.888;8.736;2022-08-03T08:21:04;1.20;;;0.70;;
34557;SDS011;24708;48.888;8.736;2022-08-03T08:23:34;1.20;;;0.80;;
34557;SDS011;24708;48.888;8.736;2022-08-03T08:26:09;2.05;;;0.70;;
34557;SDS011;24708;48.888;8.736;2022-08-03T08:28:36;6.20;;;1.17;;
34557;SDS011;24708;48.888;8.736;2022-08-03T08:31:04;1.20;;;0.80;;
34557;SDS011;24708;48.888;8.736;2022-08-03T08:33:31;1.17;;;0.80;;
34557;SDS011;24708;48.888;8.736;2022-08-03T08:36:20;2.40;;;0.82;;
34557;SDS011;24708;48.888;8.736;2022-08-03T08:38:47;3.58;;;0.60;;
34557;SDS011;24708;48.888;8.736;2022-08-03T08:41:14;1.20;;;0.90;;
34557;SDS011;24708;48.888;8.736;2022-08-03T08:43:42;1.10;;;0.60;;
34557;SDS011;24708;48.888;8.736;2022-08-03T08:46:10;1.80;;;0.90;;
34557;SDS011;24708;48.888;8.736;2022-08-03T08:48:50;3.40;;;1.20;;
34557;SDS011;24708;48.888;8.736;2022-08-03T08:51:19;5.75;;;0.98;;
34557;SDS011;24708;48.888;8.736;2022-08-03T08:53:50;1.10;;;0.90;;
34557;SDS011;24708;48.888;8.736;2022-08-03T08:56:19;1.17;;;1.08;;
34557;SDS011;24708;48.888;8.736;2022-08-03T08:58:52;3.20;;;0.70;;
34557;SDS011;24708;48.888;8.736;2022-08-03T09:01:22;1.33;;;1.20;;
34557;SDS011;24708;48.888;8.736;2022-08-03T09:03:50;7.22;;;1.00;;
34557;SDS011;24708;48.888;8.736;2022-08-03T09:06:19;2.05;;;1.20;;
34557;SDS011;24708;48.888;8.736;2022-08-03T09:08:47;2.80;;;1.02;;
34557;SDS011;24708;48.888;8.736;2022-08-03T09:11:14;0.82;;;0.80;;
34557;SDS011;24708;48.888;8.736;2022-08-03T09:13:42;1.13;;;0.82;;
34557;SDS011;24708;48.888;8.736;2022-08-03T09:16:13;1.23;;;0.90;;
34557;SDS011;24708;48.888;8.736;2022-08-03T09:18:45;1.13;;;0.80;;
34557;SDS011;24708;48.888;8.736;2022-08-03T09:21:16;2.30;;;1.05;;
34557;SDS011;24708;48.888;8.736;2022-08-03T09:24:00;9.48;;;1.05;;
34557;SDS011;24708;48.888;8.736;2022-08-03T09:26:33;1.27;;;0.90;;
34557;SDS011;24708;48.888;8.736;2022-08-03T09:29:05;1.38;;;1.00;;
34557;SDS011;24708;48.888;8.736;2022-08-03T09:31:41;2.50;;;0.90;;
34557;SDS011;24708;48.888;8.736;2022-08-03T09:34:12;1.70;;;0.70;;
34557;SDS011;24708;48.888;8.736;2022-08-03T09:36:42;10.48;;;0.90;;
34557;SDS011;24708;48.888;8.736;2022-08-03T09:39:15;0.70;;;0.50;;
34557;SDS011;24708;48.888;8.736;2022-08-03T09:41:46;1.83;;;0.90;;
34557;SDS011;24708;48.888;8.736;2022-08-03T09:44:15;1.13;;;0.70;;
34557;SDS011;24708;48.888;8.736;2022-08-03T09:46:52;1.90;;;0.68;;
34557;SDS011;24708;48.888;8.736;2022-08-03T09:49:22;1.23;;;0.88;;
34557;SDS011;24708;48.888;8.736;2022-08-03T09:51:51;0.95;;;0.80;;
34557;SDS011;24708;48.888;8.736;2022-08-03T09:54:39;8.82;;;1.00;;
34557;SDS011;24708;48.888;8.736;2022-08-03T09:57:07;2.53;;;0.63;;
34557;SDS011;24708;48.888;8.736;2022-08-03T09:59:46;1.15;;;0.75;;
34557;SDS011;24708;48.888;8.736;2022-08-03T10:02:21;4.25;;;0.90;;
34557;SDS011;24708;48.888;8.736;2022-08-03T10:04:52;1.13;;;0.65;;
34557;SDS011;24708;48.888;8.736;2022-08-03T10:07:20;2.65;;;1.02;;
34557;SDS011;24708;48.888;8.736;2022-08-03T10:09:52;3.65;;;0.80;;
34557;SDS011;24708;48.888;8.736;2022-08-03T10:12:22;1.33;;;0.80;;
34557;SDS011;24708;48.888;8.736;2022-08-03T10:14:50;1.35;;;0.82;;
34557;SDS011;24708;48.888;8.736;2022-08-03T10:17:18;3.63;;;0.80;;
34557;SDS011;24708;48.888;8.736;2022-08-03T10:19:47;4.18;;;1.08;;
34557;SDS011;24708;48.888;8.736;2022-08-03T10:22:15;2.22;;;0.70;;
34557;SDS011;24708;48.888;8.736;2022-08-03T10:24:51;1.50;;;0.75;;
34557;SDS011;24708;48.888;8.736;2022-08-03T10:27:22;1.33;;;0.90;;
34557;SDS011;24708;48.888;8.736;2022-08-03T10:29:51;4.95;;;1.10;;
34557;SDS011;24708;48.888;8.736;2022-08-03T10:32:24;1.70;;;1.20;;
34557;SDS011;24708;48.888;8.736;2022-08-03T10:34:58;3.53;;;0.88;;
34557;SDS011;24708;48.888;8.736;2022-08-03T10:37:49;2.03;;;1.00;;
34557;SDS011;24708;48.888;8.736;2022-08-03T10:40:26;1.50;;;0.73;;
34557;SDS011;24708;48.888;8.736;2022-08-03T10:43:25;3.42;;;0.93;;
34557;SDS011;24708;48.888;8.736;2022-08-03T10:45:59;4.70;;;1.15;;
34557;SDS011;24708;48.888;8.736;2022-08-03T10:48:28;1.92;;;1.00;;
34557;SDS011;24708;48.888;8.736;2022-08-03T10:50:56;1.20;;;0.80;;
34557;SDS011;24708;48.888;8.736;2022-08-03T10:53:40;1.17;;;0.85;;
34557;SDS011;24708;48.888;8.736;2022-08-03T10:56:51;1.50;;;1.02;;
34557;SDS011;24708;48.888;8.736;2022-08-03T11:02:31;2.17;;;0.65;;
34557;SDS011;24708;48.888;8.736;2022-08-03T11:05:29;6.45;;;0.73;;
34557;SDS011;24708;48.888;8.736;2022-08-03T11:10:46;7.00;;;0.80;;
34557;SDS011;24708;48.888;8.736;2022-08-03T11:13:15;0.70;;;0.70;;
34557;SDS011;24708;48.888;8.736;2022-08-03T11:15:44;1.70;;;0.85;;
34557;SDS011;24708;48.888;8.736;2022-08-03T11:18:13;3.63;;;1.40;;
34557;SDS011;24708;48.888;8.736;2022-08-03T11:20:43;2.47;;;0.90;;
34557;SDS011;24708;48.888;8.736;2022-08-03T11:23:13;1.60;;;0.98;;
34557;SDS011;24708;48.888;8.736;2022-08-03T11:26:14;1.10;;;0.80;;
34557;SDS011;24708;48.888;8.736;2022-08-03T11:28:38;1.05;;;0.90;;
34557;SDS011;24708;48.888;8.736;2022-08-03T11:34:14;0.63;;;0.60;;
34557;SDS011;24708;48.888;8.736;2022-08-03T11:39:52;0.98;;;0.70;;
34557;SDS011;24708;48.888;8.736;2022-08-03T11:44:59;1.38;;;0.90;;
34557;SDS011;24708;48.888;8.736;2022-08-03T11:47:27;3.13;;;0.50;;
34557;SDS011;24708;48.888;8.736;2022-08-03T11:49:56;4.07;;;0.93;;
34557;SDS011;24708;48.888;8.736;2022-08-03T11:52:33;1.80;;;0.90;;
34557;SDS011;24708;48.888;8.736;2022-08-03T11:55:02;3.53;;;0.98;;
34557;SDS011;24708;48.888;8.736;2022-08-03T11:57:35;1.52;;;0.60;;
34557;SDS011;24708;48.888;8.736;2022-08-03T12:00:30;1.67;;;0.73;;
34557;SDS011;24708;48.888;8.736;2022-08-03T12:03:01;3.60;;;0.80;;
34557;SDS011;24708;48.888;8.736;2022-08-03T12:05:32;2.05;;;1.05;;
34557;SDS011;24708;48.888;8.736;2022-08-03T12:08:01;7.80;;;1.15;;
34557;SDS011;24708;48.888;8.736;2022-08-03T12:10:32;4.30;;;0.77;;
34557;SDS011;24708;48.888;8.736;2022-08-03T12:13:00;4.60;;;0.80;;
34557;SDS011;24708;48.888;8.736;2022-08-03T12:15:53;4.47;;;1.02;;
34557;SDS011;24708;48.888;8.736;2022-08-03T12:18:22;1.88;;;1.25;;
34557;SDS011;24708;48.888;8.736;2022-08-03T12:20:50;1.15;;;0.82;;
34557;SDS011;24708;48.888;8.736;2022-08-03T12:23:18;1.55;;;1.00;;
34557;SDS011;24708;48.888;8.736;2022-08-03T12:25:46;1.15;;;0.82;;
34557;SDS011;24708;48.888;8.736;2022-08-03T12:28:17;3.80;;;1.02;;
34557;SDS011;24708;48.888;8.736;2022-08-03T12:31:04;1.63;;;1.10;;
34557;SDS011;24708;48.888;8.736;2022-08-03T12:34:04;1.42;;;1.05;;
34557;SDS011;24708;48.888;8.736;2022-08-03T12:36:32;1.48;;;0.75;;
34557;SDS011;24708;48.888;8.736;2022-08-03T12:39:02;0.88;;;0.80;;
34557;SDS011;24708;48.888;8.736;2022-08-03T12:41:33;1.20;;;0.70;;
34557;SDS011;24708;48.888;8.736;2022-08-03T12:44:03;4.53;;;1.20;;
34557;SDS011;24708;48.888;8.736;2022-08-03T12:46:33;2.25;;;0.85;;
34557;SDS011;24708;48.888;8.736;2022-08-03T12:49:04;1.35;;;0.90;;
34557;SDS011;24708;48.888;8.736;2022-08-03T12:51:54;4.00;;;1.35;;
34557;SDS011;24708;48.888;8.736;2022-08-03T12:54:24;6.60;;;1.10;;
34557;SDS011;24708;48.888;8.736;2022-08-03T12:57:02;2.45;;;0.77;;
34557;SDS011;24708;48.888;8.736;2022-08-03T12:59:33;1.98;;;0.82;;
34557;SDS011;24708;48.888;8.736;2022-08-03T13:02:14;1.95;;;1.08;;
34557;SDS011;24708;48.888;8.736;2022-08-03T13:04:49;2.55;;;1.10;;
34557;SDS011;24708;48.888;8.736;2022-08-03T13:07:18;2.38;;;1.05;;
34557;SDS011;24708;48.888;8.736;2022-08-03T13:09:48;1.38;;;1.00;;
34557;SDS011;24708;48.888;8.736;2022-08-03T13:12:19;4.90;;;1.20;;
34557;SDS011;24708;48.888;8.736;2022-08-03T13:14:49;1.63;;;0.90;;
34557;SDS011;24708;48.888;8.736;2022-08-03T13:17:18;3.38;;;0.98;;
34557;SDS011;24708;48.888;8.736;2022-08-03T13:19:47;3.45;;;0.90;;
34557;SDS011;24708;48.888;8.736;2022-08-03T13:22:16;1.90;;;0.93;;
34557;SDS011;24708;48.888;8.736;2022-08-03T13:24:49;4.88;;;1.00;;
34557;SDS011;24708;48.888;8.736;2022-08-03T13:27:18;2.42;;;1.10;;
34557;SDS011;24708;48.888;8.736;2022-08-03T13:30:06;0.80;;;0.70;;
34557;SDS011;24708;48.888;8.736;2022-08-03T13:32:34;2.90;;;1.02;;
34557;SDS011;24708;48.888;8.736;2022-08-03T13:35:02;1.30;;;0.90;;
34557;SDS011;24708;48.888;8.736;2022-08-03T13:37:30;4.13;;;1.08;;
34557;SDS011;24708;48.888;8.736;2022-08-03T13:39:58;1.75;;;1.00;;
34557;SDS011;24708;48.888;8.736;2022-08-03T13:42:30;6.80;;;1.00;;
34557;SDS011;24708;48.888;8.736;2022-08-03T13:44:59;1.00;;;0.68;;
34557;SDS011;24708;48.888;8.736;2022-08-03T13:47:27;4.95;;;0.85;;
34557;SDS011;24708;48.888;8.736;2022-08-03T13:49:54;3.47;;;1.08;;
34557;SDS011;24708;48.888;8.736;2022-08-03T13:52:28;6.53;;;1.27;;
34557;SDS011;24708;48.888;8.736;2022-08-03T13:54:57;5.32;;;0.98;;
34557;SDS011;24708;48.888;8.736;2022-08-03T13:57:25;1.63;;;0.98;;
34557;SDS011;24708;48.888;8.736;2022-08-03T14:00:13;3.53;;;1.02;;
34557;SDS011;24708;48.888;8.736;2022-08-03T14:02:52;3.78;;;1.15;;
34557;SDS011;24708;48.888;8.736;2022-08-03T14:05:28;7.72;;;1.25;;
34557;SDS011;24708;48.888;8.736;2022-08-03T14:07:58;1.50;;;0.98;;
34557;SDS011;24708;48.888;8.736;2022-08-03T14:10:38;5.95;;;0.95;;
34557;SDS011;24708;48.888;8.736;2022-08-03T14:13:09;1.15;;;0.90;;
34557;SDS011;24708;48.888;8.736;2022-08-03T14:15:37;4.95;;;1.48;;
34557;SDS011;24708;48.888;8.736;2022-08-03T14:18:05;1.83;;;1.02;;
34557;SDS011;24708;48.888;8.736;2022-08-03T14:20:42;2.35;;;1.05;;
34557;SDS011;24708;48.888;8.736;2022-08-03T14:23:16;1.73;;;1.05;;
34557;SDS011;24708;48.888;8.736;2022-08-03T14:25:43;1.52;;;1.08;;
34557;SDS011;24708;48.888;8.736;2022-08-03T14:28:19;1.50;;;0.98;;
34557;SDS011;24708;48.888;8.736;2022-08-03T14:30:49;2.50;;;1.20;;
34557;SDS011;24708;48.888;8.736;2022-08-03T14:33:17;1.20;;;0.80;;
34557;SDS011;24708;48.888;8.736;2022-08-03T14:35:48;2.60;;;1.38;;
34557;SDS011;24708;48.888;8.736;2022-08-03T14:38:15;2.05;;;0.90;;
34557;SDS011;24708;48.888;8.736;2022-08-03T14:40:43;1.10;;;0.70;;
34557;SDS011;24708;48.888;8.736;2022-08-03T14:43:11;0.95;;;0.70;;
34557;SDS011;24708;48.888;8.736;2022-08-03T14:45:39;3.00;;;1.15;;
34557;SDS011;24708;48.888;8.736;2022-08-03T14:48:07;6.55;;;0.82;;
34557;SDS011;24708;48.888;8.736;2022-08-03T14:50:54;3.45;;;0.77;;
34557;SDS011;24708;48.888;8.736;2022-08-03T14:53:22;3.42;;;0.75;;
34557;SDS011;24708;48.888;8.736;2022-08-03T14:55:50;2.30;;;0.90;;
34557;SDS011;24708;48.888;8.736;2022-08-03T14:58:19;2.38;;;1.08;;
34557;SDS011;24708;48.888;8.736;2022-08-03T15:00:49;5.72;;;1.00;;
34557;SDS011;24708;48.888;8.736;2022-08-03T15:03:18;1.85;;;1.02;;
34557;SDS011;24708;48.888;8.736;2022-08-03T15:05:51;3.90;;;1.10;;
34557;SDS011;24708;48.888;8.736;2022-08-03T15:08:19;2.08;;;1.08;;
34557;SDS011;24708;48.888;8.736;2022-08-03T15:10:47;2.92;;;1.08;;
34557;SDS011;24708;48.888;8.736;2022-08-03T15:13:15;3.63;;;1.02;;
34557;SDS011;24708;48.888;8.736;2022-08-03T15:15:43;1.33;;;0.82;;
34557;SDS011;24708;48.888;8.736;2022-08-03T15:18:10;2.63;;;1.27;;
34557;SDS011;24708;48.888;8.736;2022-08-03T15:20:37;0.88;;;0.70;;
34557;SDS011;24708;48.888;8.736;2022-08-03T15:23:12;3.45;;;1.13;;
34557;SDS011;24708;48.888;8.736;2022-08-03T15:25:40;2.65;;;1.33;;
34557;SDS011;24708;48.888;8.736;2022-08-03T15:28:28;1.63;;;0.95;;
34557;SDS011;24708;48.888;8.736;2022-08-03T15:30:56;6.82;;;1.17;;
34557;SDS011;24708;48.888;8.736;2022-08-03T15:33:23;1.48;;;0.98;;
34557;SDS011;24708;48.888;8.736;2022-08-03T15:35:50;2.30;;;1.30;;
34557;SDS011;24708;48.888;8.736;2022-08-03T15:38:19;6.28;;;1.00;;
34557;SDS011;24708;48.888;8.736;2022-08-03T15:40:52;1.90;;;1.00;;
34557;SDS011;24708;48.888;8.736;2022-08-03T15:43:21;3.92;;;1.08;;
34557;SDS011;24708;48.888;8.736;2022-08-03T15:45:48;3.65;;;0.98;;
34557;SDS011;24708;48.888;8.736;2022-08-03T15:48:35;2.88;;;0.85;;
34557;SDS011;24708;48.888;8.736;2022-08-03T15:51:03;5.82;;;1.25;;
34557;SDS011;24708;48.888;8.736;2022-08-03T15:53:31;1.98;;;0.75;;
34557;SDS011;24708;48.888;8.736;2022-08-03T15:55:59;1.50;;;0.93;;
34557;SDS011;24708;48.888;8.736;2022-08-03T15:58:33;2.85;;;1.05;;
